sensor_id;sensor_type;location;lat;lon;timestamp;pressure;altitude;pressure_sealevel;temperature;humidity
70982;BME280;58640;51.320;9.456;2023-03-13T00:01:01;98428.47;;;5.67;100.00
70982;BME280;58640;51.320;9.456;2023-03-13T00:03:27;98429.97;;;5.70;100.00
70982;BME280;58640;51.320;9.456;2023-03-13T00:05:57;98430.47;;;5.65;100.00
70982;BME280;58640;51.320;9.456;2023-03-13T00:08:23;98420.66;;;5.66;100.00
70982;BME280;58640;51.320;9.456;2023-03-13T00:10:49;98416.78;;;5.84;100.00
70982;BME280;58640;51.320;9.456;2023-03-13T00:13:14;98405.78;;;5.87;100.00
70982;BME280;58640;51.320;9.456;2023-03-13T00:15:40;98413.28;;;5.84;100.00
70982;BME280;58640;51.320;9.456;2023-03-13T00:18:05;98404.63;;;5.82;100.00
70982;BME280;58640;51.320;9.456;2023-03-13T00:20:30;98398.94;;;5.77;100.00
70982;BME280;58640;51.320;9.456;2023-03-13T00:22:56;98399.63;;;5.71;100.00
70982;BME280;58640;51.320;9.456;2023-03-13T00:25:21;98398.94;;;5.77;100.00
70982;BME280;58640;51.320;9.456;2023-03-13T00:27:46;98385.41;;;5.94;100.00
70982;BME280;58640;51.320;9.456;2023-03-13T00:30:12;98377.75;;;5.91;100.00
70982;BME280;58640;51.320;9.456;2023-03-13T00:32:42;98380.78;;;5.88;100.00
70982;BME280;58640;51.320;9.456;2023-03-13T00:35:08;98374.75;;;5.86;100.00
70982;BME280;58640;51.320;9.456;2023-03-13T00:37:33;98376.41;;;5.87;100.00
70982;BME280;58640;51.320;9.456;2023-03-13T00:39:59;98372.59;;;5.90;100.00
70982;BME280;58640;51.320;9.456;2023-03-13T00:42:24;98371.22;;;5.94;100.00
70982;BME280;58640;51.320;9.456;2023-03-13T00:44:49;98372.75;;;5.97;100.00
70982;BME280;58640;51.320;9.456;2023-03-13T00:47:15;98369.41;;;5.94;100.00
70982;BME280;58640;51.320;9.456;2023-03-13T00:49:40;98356.06;;;5.94;100.00
70982;BME280;58640;51.320;9.456;2023-03-13T00:52:05;98342.00;;;6.01;100.00
70982;BME280;58640;51.320;9.456;2023-03-13T00:54:31;98339.66;;;6.06;100.00
70982;BME280;58640;51.320;9.456;2023-03-13T00:56:56;98329.69;;;6.00;100.00
70982;BME280;58640;51.320;9.456;2023-03-13T00:59:22;98326.81;;;6.09;100.00
70982;BME280;58640;51.320;9.456;2023-03-13T01:01:47;98321.09;;;6.12;99.75
70982;BME280;58640;51.320;9.456;2023-03-13T01:04:12;98308.38;;;6.22;99.13
70982;BME280;58640;51.320;9.456;2023-03-13T01:06:39;98315.00;;;6.26;99.07
70982;BME280;58640;51.320;9.456;2023-03-13T01:09:07;98307.13;;;6.33;98.28
70982;BME280;58640;51.320;9.456;2023-03-13T01:11:36;98310.66;;;6.33;98.24
70982;BME280;58640;51.320;9.456;2023-03-13T01:14:06;98303.81;;;6.31;98.65
70982;BME280;58640;51.320;9.456;2023-03-13T01:16:34;98295.56;;;6.40;98.27
70982;BME280;58640;51.320;9.456;2023-03-13T01:19:01;98287.31;;;6.50;97.72
70982;BME280;58640;51.320;9.456;2023-03-13T01:21:27;98294.75;;;6.40;97.93
70982;BME280;58640;51.320;9.456;2023-03-13T01:23:53;98283.88;;;6.41;97.89
70982;BME280;58640;51.320;9.456;2023-03-13T01:26:19;98279.78;;;6.53;97.11
70982;BME280;58640;51.320;9.456;2023-03-13T01:28:45;98271.59;;;6.55;96.90
70982;BME280;58640;51.320;9.456;2023-03-13T01:31:19;98260.91;;;6.55;96.94
70982;BME280;58640;51.320;9.456;2023-03-13T01:33:46;98258.84;;;6.42;97.91
70982;BME280;58640;51.320;9.456;2023-03-13T01:36:12;98251.25;;;6.54;97.47
70982;BME280;58640;51.320;9.456;2023-03-13T01:38:38;98251.06;;;6.55;97.29
70982;BME280;58640;51.320;9.456;2023-03-13T01:41:05;98247.28;;;6.64;97.53
70982;BME280;58640;51.320;9.456;2023-03-13T01:43:32;98234.41;;;6.68;96.40
70982;BME280;58640;51.320;9.456;2023-03-13T01:48:51;98234.06;;;6.71;96.43
70982;BME280;58640;51.320;9.456;2023-03-13T01:51:29;98223.47;;;6.77;96.03
70982;BME280;58640;51.320;9.456;2023-03-13T01:56:41;98221.00;;;6.90;95.42
70982;BME280;58640;51.320;9.456;2023-03-13T01:59:10;98210.72;;;7.02;95.04
70982;BME280;58640;51.320;9.456;2023-03-13T02:01:37;98205.38;;;7.02;94.68
70982;BME280;58640;51.320;9.456;2023-03-13T02:04:03;98206.91;;;6.96;94.86
70982;BME280;58640;51.320;9.456;2023-03-13T02:06:32;98195.28;;;7.04;94.46
70982;BME280;58640;51.320;9.456;2023-03-13T02:09:02;98187.75;;;7.07;94.60
70982;BME280;58640;51.320;9.456;2023-03-13T02:11:36;98193.47;;;7.04;94.85
70982;BME280;58640;51.320;9.456;2023-03-13T02:14:05;98182.69;;;7.12;94.63
70982;BME280;58640;51.320;9.456;2023-03-13T02:16:32;98176.22;;;7.07;94.64
70982;BME280;58640;51.320;9.456;2023-03-13T02:18:57;98176.94;;;7.01;94.92
70982;BME280;58640;51.320;9.456;2023-03-13T02:21:38;98173.81;;;7.12;94.53
70982;BME280;58640;51.320;9.456;2023-03-13T02:24:35;98167.09;;;7.16;94.38
70982;BME280;58640;51.320;9.456;2023-03-13T02:26:58;98162.84;;;7.21;94.20
70982;BME280;58640;51.320;9.456;2023-03-13T02:29:24;98150.59;;;7.12;94.58
70982;BME280;58640;51.320;9.456;2023-03-13T02:31:50;98155.09;;;7.26;93.88
70982;BME280;58640;51.320;9.456;2023-03-13T02:34:19;98136.94;;;7.22;93.89
70982;BME280;58640;51.320;9.456;2023-03-13T02:36:46;98153.72;;;7.16;94.42
70982;BME280;58640;51.320;9.456;2023-03-13T02:39:13;98150.41;;;7.14;94.68
70982;BME280;58640;51.320;9.456;2023-03-13T02:41:41;98141.00;;;7.18;94.74
70982;BME280;58640;51.320;9.456;2023-03-13T02:44:07;98128.44;;;7.33;93.64
70982;BME280;58640;51.320;9.456;2023-03-13T02:46:46;98132.84;;;7.26;94.22
70982;BME280;58640;51.320;9.456;2023-03-13T02:49:27;98127.78;;;7.31;93.82
70982;BME280;58640;51.320;9.456;2023-03-13T02:51:56;98116.56;;;7.21;94.61
70982;BME280;58640;51.320;9.456;2023-03-13T02:54:27;98123.00;;;7.26;94.24
70982;BME280;58640;51.320;9.456;2023-03-13T02:56:56;98113.69;;;7.37;93.55
70982;BME280;58640;51.320;9.456;2023-03-13T02:59:23;98112.19;;;7.34;93.85
70982;BME280;58640;51.320;9.456;2023-03-13T03:01:48;98113.59;;;7.30;94.11
70982;BME280;58640;51.320;9.456;2023-03-13T03:04:20;98101.31;;;7.36;93.77
70982;BME280;58640;51.320;9.456;2023-03-13T03:06:45;98098.16;;;7.32;93.86
70982;BME280;58640;51.320;9.456;2023-03-13T03:09:11;98088.50;;;7.31;94.59
70982;BME280;58640;51.320;9.456;2023-03-13T03:11:36;98086.09;;;7.36;94.18
70982;BME280;58640;51.320;9.456;2023-03-13T03:14:03;98078.06;;;7.36;94.40
70982;BME280;58640;51.320;9.456;2023-03-13T03:16:28;98059.03;;;7.46;94.35
70982;BME280;58640;51.320;9.456;2023-03-13T03:18:54;98053.03;;;7.44;94.01
70982;BME280;58640;51.320;9.456;2023-03-13T03:21:19;98041.38;;;7.52;93.63
70982;BME280;58640;51.320;9.456;2023-03-13T03:23:45;98032.88;;;7.41;94.11
70982;BME280;58640;51.320;9.456;2023-03-13T03:26:11;98037.63;;;7.46;93.83
70982;BME280;58640;51.320;9.456;2023-03-13T03:28:36;98035.22;;;7.51;93.54
70982;BME280;58640;51.320;9.456;2023-03-13T03:31:06;98031.72;;;7.51;93.77
70982;BME280;58640;51.320;9.456;2023-03-13T03:33:31;98020.38;;;7.48;93.92
70982;BME280;58640;51.320;9.456;2023-03-13T03:36:01;98017.09;;;7.47;93.80
70982;BME280;58640;51.320;9.456;2023-03-13T03:38:26;98012.53;;;7.47;94.05
70982;BME280;58640;51.320;9.456;2023-03-13T03:40:52;97998.03;;;7.56;93.97
70982;BME280;58640;51.320;9.456;2023-03-13T03:43:18;98005.81;;;7.51;94.75
70982;BME280;58640;51.320;9.456;2023-03-13T03:45:43;97995.09;;;7.51;95.02
70982;BME280;58640;51.320;9.456;2023-03-13T03:48:08;97986.50;;;7.34;96.61
70982;BME280;58640;51.320;9.456;2023-03-13T03:50:34;97979.50;;;7.33;96.79
70982;BME280;58640;51.320;9.456;2023-03-13T03:52:59;97974.94;;;7.34;96.95
70982;BME280;58640;51.320;9.456;2023-03-13T03:55:24;97977.56;;;7.48;96.08
70982;BME280;58640;51.320;9.456;2023-03-13T03:57:50;97979.84;;;7.52;95.73
70982;BME280;58640;51.320;9.456;2023-03-13T04:00:15;97966.78;;;7.63;95.38
70982;BME280;58640;51.320;9.456;2023-03-13T04:02:42;97966.31;;;7.53;96.00
70982;BME280;58640;51.320;9.456;2023-03-13T04:05:08;97966.78;;;7.63;95.69
70982;BME280;58640;51.320;9.456;2023-03-13T04:07:33;97969.28;;;7.65;95.94
70982;BME280;58640;51.320;9.456;2023-03-13T04:09:59;97966.66;;;7.71;95.82
70982;BME280;58640;51.320;9.456;2023-03-13T04:12:24;97951.53;;;7.85;95.74
70982;BME280;58640;51.320;9.456;2023-03-13T04:14:49;97936.06;;;7.80;96.34
70982;BME280;58640;51.320;9.456;2023-03-13T04:17:15;97921.72;;;7.88;97.09
70982;BME280;58640;51.320;9.456;2023-03-13T04:19:40;97930.72;;;7.80;98.32
70982;BME280;58640;51.320;9.456;2023-03-13T04:22:06;97929.03;;;7.79;98.89
70982;BME280;58640;51.320;9.456;2023-03-13T04:24:31;97914.25;;;7.83;98.96
70982;BME280;58640;51.320;9.456;2023-03-13T04:26:57;97911.34;;;7.78;99.84
70982;BME280;58640;51.320;9.456;2023-03-13T04:29:22;97916.19;;;7.68;100.00
70982;BME280;58640;51.320;9.456;2023-03-13T04:31:48;97912.94;;;7.73;100.00
70982;BME280;58640;51.320;9.456;2023-03-13T04:34:13;97941.72;;;7.64;100.00
70982;BME280;58640;51.320;9.456;2023-03-13T04:36:38;97926.91;;;7.68;100.00
70982;BME280;58640;51.320;9.456;2023-03-13T04:39:04;97927.16;;;7.73;100.00
70982;BME280;58640;51.320;9.456;2023-03-13T04:41:29;97925.13;;;7.75;100.00
70982;BME280;58640;51.320;9.456;2023-03-13T04:43:54;97932.44;;;7.67;100.00
70982;BME280;58640;51.320;9.456;2023-03-13T04:46:20;97933.53;;;7.72;100.00
70982;BME280;58640;51.320;9.456;2023-03-13T04:48:45;97917.22;;;7.67;100.00
70982;BME280;58640;51.320;9.456;2023-03-13T04:51:11;97913.09;;;7.65;100.00
70982;BME280;58640;51.320;9.456;2023-03-13T04:53:37;97887.78;;;7.67;100.00
70982;BME280;58640;51.320;9.456;2023-03-13T04:56:02;97874.81;;;7.64;100.00
70982;BME280;58640;51.320;9.456;2023-03-13T04:58:28;97860.19;;;7.67;100.00
70982;BME280;58640;51.320;9.456;2023-03-13T05:00:53;97874.38;;;7.61;100.00
70982;BME280;58640;51.320;9.456;2023-03-13T05:03:19;97868.56;;;7.57;100.00
70982;BME280;58640;51.320;9.456;2023-03-13T05:05:44;97872.50;;;7.61;100.00
70982;BME280;58640;51.320;9.456;2023-03-13T05:08:09;97874.38;;;7.61;100.00
70982;BME280;58640;51.320;9.456;2023-03-13T05:10:35;97884.47;;;7.65;100.00
70982;BME280;58640;51.320;9.456;2023-03-13T05:13:00;97853.34;;;7.58;100.00
70982;BME280;58640;51.320;9.456;2023-03-13T05:15:26;97864.53;;;7.68;100.00
70982;BME280;58640;51.320;9.456;2023-03-13T05:17:51;97875.28;;;7.74;100.00
70982;BME280;58640;51.320;9.456;2023-03-13T05:20:16;97893.41;;;7.79;100.00
70982;BME280;58640;51.320;9.456;2023-03-13T05:22:42;97884.72;;;7.70;100.00
70982;BME280;58640;51.320;9.456;2023-03-13T05:25:07;97872.59;;;7.74;100.00
70982;BME280;58640;51.320;9.456;2023-03-13T05:27:33;97883.25;;;7.68;100.00
70982;BME280;58640;51.320;9.456;2023-03-13T05:29:58;97895.47;;;7.77;100.00
70982;BME280;58640;51.320;9.456;2023-03-13T05:32:23;97898.75;;;7.72;100.00
70982;BME280;58640;51.320;9.456;2023-03-13T05:34:49;97895.53;;;7.83;100.00
70982;BME280;58640;51.320;9.456;2023-03-13T05:37:14;97894.59;;;7.70;100.00
70982;BME280;58640;51.320;9.456;2023-03-13T05:39:39;97892.75;;;7.70;100.00
70982;BME280;58640;51.320;9.456;2023-03-13T05:42:05;97882.09;;;7.77;100.00
70982;BME280;58640;51.320;9.456;2023-03-13T05:44:30;97872.44;;;7.82;100.00
70982;BME280;58640;51.320;9.456;2023-03-13T05:46:56;97886.72;;;7.89;100.00
70982;BME280;58640;51.320;9.456;2023-03-13T05:49:21;97884.44;;;7.86;100.00
70982;BME280;58640;51.320;9.456;2023-03-13T05:51:46;97885.72;;;7.97;100.00
70982;BME280;58640;51.320;9.456;2023-03-13T05:54:12;97860.56;;;7.91;100.00
70982;BME280;58640;51.320;9.456;2023-03-13T05:56:37;97860.03;;;8.02;100.00
70982;BME280;58640;51.320;9.456;2023-03-13T05:59:02;97843.16;;;8.08;100.00
70982;BME280;58640;51.320;9.456;2023-03-13T06:01:28;97830.34;;;7.97;100.00
70982;BME280;58640;51.320;9.456;2023-03-13T06:03:53;97825.97;;;7.96;100.00
70982;BME280;58640;51.320;9.456;2023-03-13T06:06:19;97819.41;;;7.99;100.00
70982;BME280;58640;51.320;9.456;2023-03-13T06:08:44;97806.47;;;8.02;100.00
70982;BME280;58640;51.320;9.456;2023-03-13T06:11:10;97814.28;;;7.97;100.00
70982;BME280;58640;51.320;9.456;2023-03-13T06:13:35;97819.06;;;8.08;100.00
70982;BME280;58640;51.320;9.456;2023-03-13T06:16:00;97814.97;;;8.19;100.00
70982;BME280;58640;51.320;9.456;2023-03-13T06:18:26;97814.25;;;8.38;100.00
70982;BME280;58640;51.320;9.456;2023-03-13T06:20:56;97818.06;;;8.22;100.00
70982;BME280;58640;51.320;9.456;2023-03-13T06:23:22;97820.25;;;8.40;100.00
70982;BME280;58640;51.320;9.456;2023-03-13T06:25:47;97812.19;;;8.40;100.00
70982;BME280;58640;51.320;9.456;2023-03-13T06:28:13;97814.88;;;8.40;100.00
70982;BME280;58640;51.320;9.456;2023-03-13T06:30:38;97814.69;;;8.48;100.00
70982;BME280;58640;51.320;9.456;2023-03-13T06:33:03;97817.59;;;8.53;100.00
70982;BME280;58640;51.320;9.456;2023-03-13T06:35:29;97824.19;;;8.57;100.00
70982;BME280;58640;51.320;9.456;2023-03-13T06:37:54;97822.16;;;8.59;100.00
70982;BME280;58640;51.320;9.456;2023-03-13T06:40:19;97819.03;;;8.55;100.00
70982;BME280;58640;51.320;9.456;2023-03-13T06:42:45;97840.28;;;8.50;100.00
70982;BME280;58640;51.320;9.456;2023-03-13T06:45:10;97828.78;;;8.63;100.00
70982;BME280;58640;51.320;9.456;2023-03-13T06:47:35;97811.88;;;8.75;100.00
70982;BME280;58640;51.320;9.456;2023-03-13T06:50:01;97832.31;;;8.83;100.00
70982;BME280;58640;51.320;9.456;2023-03-13T06:52:26;97836.81;;;8.69;100.00
70982;BME280;58640;51.320;9.456;2023-03-13T06:54:52;97825.91;;;8.71;100.00
70982;BME280;58640;51.320;9.456;2023-03-13T06:57:17;97810.81;;;8.70;100.00
70982;BME280;58640;51.320;9.456;2023-03-13T06:59:43;97818.84;;;8.63;100.00
70982;BME280;58640;51.320;9.456;2023-03-13T07:02:12;97804.84;;;8.74;100.00
70982;BME280;58640;51.320;9.456;2023-03-13T07:04:39;97797.66;;;8.88;100.00
70982;BME280;58640;51.320;9.456;2023-03-13T07:07:04;97802.00;;;8.89;100.00
70982;BME280;58640;51.320;9.456;2023-03-13T07:09:30;97798.09;;;8.98;100.00
70982;BME280;58640;51.320;9.456;2023-03-13T07:11:55;97795.00;;;9.01;100.00
70982;BME280;58640;51.320;9.456;2023-03-13T07:14:23;97804.06;;;9.00;100.00
70982;BME280;58640;51.320;9.456;2023-03-13T07:16:48;97801.78;;;8.97;100.00
70982;BME280;58640;51.320;9.456;2023-03-13T07:19:13;97806.34;;;8.97;100.00
70982;BME280;58640;51.320;9.456;2023-03-13T07:21:39;97825.72;;;8.99;100.00
70982;BME280;58640;51.320;9.456;2023-03-13T07:24:05;97820.78;;;9.02;100.00
70982;BME280;58640;51.320;9.456;2023-03-13T07:26:31;97816.47;;;9.14;100.00
70982;BME280;58640;51.320;9.456;2023-03-13T07:28:56;97827.78;;;9.10;100.00
70982;BME280;58640;51.320;9.456;2023-03-13T07:31:22;97833.34;;;9.02;100.00
70982;BME280;58640;51.320;9.456;2023-03-13T07:33:48;97838.50;;;9.10;100.00
70982;BME280;58640;51.320;9.456;2023-03-13T07:36:17;97821.41;;;9.17;100.00
70982;BME280;58640;51.320;9.456;2023-03-13T07:38:42;97816.66;;;9.19;100.00
70982;BME280;58640;51.320;9.456;2023-03-13T07:41:11;97809.84;;;9.23;100.00
70982;BME280;58640;51.320;9.456;2023-03-13T07:43:39;97826.97;;;9.29;100.00
70982;BME280;58640;51.320;9.456;2023-03-13T07:46:06;97798.09;;;9.31;100.00
70982;BME280;58640;51.320;9.456;2023-03-13T07:48:35;97801.81;;;9.36;100.00
70982;BME280;58640;51.320;9.456;2023-03-13T07:51:01;97793.13;;;9.34;100.00
70982;BME280;58640;51.320;9.456;2023-03-13T07:53:27;97802.41;;;9.45;100.00
70982;BME280;58640;51.320;9.456;2023-03-13T07:56:08;97796.56;;;9.74;100.00
70982;BME280;58640;51.320;9.456;2023-03-13T07:58:35;97798.91;;;9.51;100.00
70982;BME280;58640;51.320;9.456;2023-03-13T08:03:34;97811.28;;;9.52;100.00
70982;BME280;58640;51.320;9.456;2023-03-13T08:06:04;97799.28;;;9.54;100.00
70982;BME280;58640;51.320;9.456;2023-03-13T08:08:30;97801.53;;;9.70;100.00
70982;BME280;58640;51.320;9.456;2023-03-13T08:11:02;97810.84;;;9.74;100.00
70982;BME280;58640;51.320;9.456;2023-03-13T08:13:28;97806.88;;;9.77;100.00
70982;BME280;58640;51.320;9.456;2023-03-13T08:16:02;97814.31;;;9.81;100.00
70982;BME280;58640;51.320;9.456;2023-03-13T08:18:28;97804.19;;;9.90;100.00
70982;BME280;58640;51.320;9.456;2023-03-13T08:20:53;97806.44;;;9.86;100.00
70982;BME280;58640;51.320;9.456;2023-03-13T08:23:19;97824.63;;;9.91;100.00
70982;BME280;58640;51.320;9.456;2023-03-13T08:25:44;97825.84;;;10.01;100.00
70982;BME280;58640;51.320;9.456;2023-03-13T08:28:09;97823.34;;;10.06;100.00
70982;BME280;58640;51.320;9.456;2023-03-13T08:30:35;97841.09;;;10.27;100.00
70982;BME280;58640;51.320;9.456;2023-03-13T08:33:00;97832.44;;;10.12;100.00
70982;BME280;58640;51.320;9.456;2023-03-13T08:35:27;97840.06;;;10.15;100.00
70982;BME280;58640;51.320;9.456;2023-03-13T08:37:53;97845.28;;;10.10;100.00
70982;BME280;58640;51.320;9.456;2023-03-13T08:40:18;97832.22;;;10.07;100.00
70982;BME280;58640;51.320;9.456;2023-03-13T08:42:43;97830.91;;;10.35;100.00
70982;BME280;58640;51.320;9.456;2023-03-13T08:45:09;97834.41;;;10.43;100.00
70982;BME280;58640;51.320;9.456;2023-03-13T08:47:34;97835.00;;;10.45;100.00
70982;BME280;58640;51.320;9.456;2023-03-13T08:50:00;97833.22;;;10.70;100.00
70982;BME280;58640;51.320;9.456;2023-03-13T08:52:25;97830.88;;;11.11;100.00
70982;BME280;58640;51.320;9.456;2023-03-13T08:54:51;97834.09;;;11.26;100.00
70982;BME280;58640;51.320;9.456;2023-03-13T08:57:16;97832.03;;;11.28;100.00
70982;BME280;58640;51.320;9.456;2023-03-13T08:59:42;97834.72;;;11.28;100.00
70982;BME280;58640;51.320;9.456;2023-03-13T09:02:08;97830.56;;;11.25;100.00
70982;BME280;58640;51.320;9.456;2023-03-13T09:04:33;97817.84;;;11.39;99.28
70982;BME280;58640;51.320;9.456;2023-03-13T09:06:59;97814.78;;;11.35;100.00
70982;BME280;58640;51.320;9.456;2023-03-13T09:09:24;97804.34;;;11.88;97.08
70982;BME280;58640;51.320;9.456;2023-03-13T09:11:49;97793.94;;;11.73;97.62
70982;BME280;58640;51.320;9.456;2023-03-13T09:14:15;97787.75;;;12.09;95.05
70982;BME280;58640;51.320;9.456;2023-03-13T09:16:40;97779.59;;;12.16;94.42
70982;BME280;58640;51.320;9.456;2023-03-13T09:19:06;97774.75;;;12.54;92.62
70982;BME280;58640;51.320;9.456;2023-03-13T09:21:33;97776.69;;;12.76;90.51
70982;BME280;58640;51.320;9.456;2023-03-13T09:23:59;97779.38;;;12.47;91.75
70982;BME280;58640;51.320;9.456;2023-03-13T09:26:25;97779.94;;;12.19;93.29
70982;BME280;58640;51.320;9.456;2023-03-13T09:28:52;97769.91;;;12.56;91.77
70982;BME280;58640;51.320;9.456;2023-03-13T09:31:20;97767.22;;;12.85;90.68
70982;BME280;58640;51.320;9.456;2023-03-13T09:33:46;97765.09;;;13.29;88.23
70982;BME280;58640;51.320;9.456;2023-03-13T09:36:12;97760.19;;;13.49;85.34
70982;BME280;58640;51.320;9.456;2023-03-13T09:38:38;97747.84;;;13.30;86.81
70982;BME280;58640;51.320;9.456;2023-03-13T09:41:18;97748.53;;;13.60;85.48
70982;BME280;58640;51.320;9.456;2023-03-13T09:49:54;97751.13;;;13.66;85.31
70982;BME280;58640;51.320;9.456;2023-03-13T09:52:27;97761.19;;;14.05;83.34
70982;BME280;58640;51.320;9.456;2023-03-13T09:55:09;97760.25;;;13.88;82.79
70982;BME280;58640;51.320;9.456;2023-03-13T09:57:40;97764.88;;;13.76;83.16
70982;BME280;58640;51.320;9.456;2023-03-13T10:00:21;97764.88;;;13.53;84.33
70982;BME280;58640;51.320;9.456;2023-03-13T10:02:56;97761.22;;;13.13;87.07
70982;BME280;58640;51.320;9.456;2023-03-13T10:05:27;97752.53;;;13.46;85.44
70982;BME280;58640;51.320;9.456;2023-03-13T10:08:00;97755.00;;;13.36;86.58
70982;BME280;58640;51.320;9.456;2023-03-13T10:10:42;97749.84;;;13.23;86.75
70982;BME280;58640;51.320;9.456;2023-03-13T10:13:39;97773.88;;;13.12;87.33
70982;BME280;58640;51.320;9.456;2023-03-13T10:16:11;97770.28;;;12.89;88.81
70982;BME280;58640;51.320;9.456;2023-03-13T10:18:43;97759.59;;;12.82;88.86
70982;BME280;58640;51.320;9.456;2023-03-13T10:21:22;97759.72;;;12.87;89.13
70982;BME280;58640;51.320;9.456;2023-03-13T10:26:23;97743.72;;;13.15;87.43
70982;BME280;58640;51.320;9.456;2023-03-13T10:29:22;97753.59;;;13.21;87.20
70982;BME280;58640;51.320;9.456;2023-03-13T10:31:56;97739.84;;;13.11;87.35
70982;BME280;58640;51.320;9.456;2023-03-13T10:34:23;97742.72;;;12.98;88.01
70982;BME280;58640;51.320;9.456;2023-03-13T10:36:54;97742.31;;;13.13;87.73
70982;BME280;58640;51.320;9.456;2023-03-13T10:39:22;97737.53;;;12.85;88.96
70982;BME280;58640;51.320;9.456;2023-03-13T10:41:49;97738.78;;;13.01;88.58
70982;BME280;58640;51.320;9.456;2023-03-13T10:44:21;97744.69;;;13.44;86.71
70982;BME280;58640;51.320;9.456;2023-03-13T10:46:49;97743.03;;;13.55;85.68
70982;BME280;58640;51.320;9.456;2023-03-13T10:49:23;97754.53;;;13.50;85.97
70982;BME280;58640;51.320;9.456;2023-03-13T10:51:59;97748.06;;;13.28;86.76
70982;BME280;58640;51.320;9.456;2023-03-13T10:54:27;97752.53;;;13.11;87.42
70982;BME280;58640;51.320;9.456;2023-03-13T10:59:51;97746.09;;;12.82;89.69
70982;BME280;58640;51.320;9.456;2023-03-13T11:02:31;97740.94;;;12.81;90.05
70982;BME280;58640;51.320;9.456;2023-03-13T11:04:58;97735.22;;;12.89;89.76
70982;BME280;58640;51.320;9.456;2023-03-13T11:07:37;97740.84;;;12.87;89.98
70982;BME280;58640;51.320;9.456;2023-03-13T11:10:27;97737.63;;;12.79;90.46
70982;BME280;58640;51.320;9.456;2023-03-13T11:12:57;97729.56;;;12.90;89.95
70982;BME280;58640;51.320;9.456;2023-03-13T11:15:46;97735.50;;;13.10;89.14
70982;BME280;58640;51.320;9.456;2023-03-13T11:18:23;97726.81;;;13.08;90.79
70982;BME280;58640;51.320;9.456;2023-03-13T11:20:54;97731.53;;;13.36;89.53
70982;BME280;58640;51.320;9.456;2023-03-13T11:23:27;97738.81;;;13.24;90.88
70982;BME280;58640;51.320;9.456;2023-03-13T11:31:57;97699.00;;;13.31;90.93
70982;BME280;58640;51.320;9.456;2023-03-13T11:34:41;97700.31;;;13.40;89.94
70982;BME280;58640;51.320;9.456;2023-03-13T11:37:12;97693.38;;;13.56;89.14
70982;BME280;58640;51.320;9.456;2023-03-13T11:39:58;97686.38;;;13.83;87.60
70982;BME280;58640;51.320;9.456;2023-03-13T11:50:31;97692.00;;;13.93;86.14
70982;BME280;58640;51.320;9.456;2023-03-13T11:56:13;97689.56;;;13.80;86.41
70982;BME280;58640;51.320;9.456;2023-03-13T12:01:59;97683.91;;;13.93;86.59
70982;BME280;58640;51.320;9.456;2023-03-13T12:04:38;97679.13;;;14.11;85.00
70982;BME280;58640;51.320;9.456;2023-03-13T12:09:59;97669.47;;;14.15;85.04
70982;BME280;58640;51.320;9.456;2023-03-13T12:12:36;97655.56;;;14.23;84.56
70982;BME280;58640;51.320;9.456;2023-03-13T12:17:50;97668.00;;;13.96;85.20
70982;BME280;58640;51.320;9.456;2023-03-13T12:20:25;97655.38;;;14.13;84.85
70982;BME280;58640;51.320;9.456;2023-03-13T12:25:52;97649.16;;;14.13;84.94
70982;BME280;58640;51.320;9.456;2023-03-13T12:28:31;97631.28;;;14.12;85.40
70982;BME280;58640;51.320;9.456;2023-03-13T12:37:02;97617.47;;;13.69;91.57
70982;BME280;58640;51.320;9.456;2023-03-13T12:39:35;97620.72;;;13.71;90.75
70982;BME280;58640;51.320;9.456;2023-03-13T12:42:22;97618.59;;;13.73;89.68
70982;BME280;58640;51.320;9.456;2023-03-13T12:44:50;97616.78;;;13.90;89.18
70982;BME280;58640;51.320;9.456;2023-03-13T12:47:31;97605.59;;;13.58;92.84
70982;BME280;58640;51.320;9.456;2023-03-13T12:58:45;97590.00;;;13.60;91.30
70982;BME280;58640;51.320;9.456;2023-03-13T13:03:52;97573.91;;;13.54;91.49
70982;BME280;58640;51.320;9.456;2023-03-13T13:06:20;97581.19;;;13.53;91.43
70982;BME280;58640;51.320;9.456;2023-03-13T13:09:13;97586.22;;;13.61;90.31
70982;BME280;58640;51.320;9.456;2023-03-13T13:11:45;97582.28;;;13.41;91.50
70982;BME280;58640;51.320;9.456;2023-03-13T13:16:45;97579.16;;;13.20;93.43
70982;BME280;58640;51.320;9.456;2023-03-13T13:24:55;97578.09;;;12.98;94.99
70982;BME280;58640;51.320;9.456;2023-03-13T13:30:02;97574.25;;;13.17;93.67
70982;BME280;58640;51.320;9.456;2023-03-13T13:32:34;97569.09;;;13.04;93.73
70982;BME280;58640;51.320;9.456;2023-03-13T13:35:22;97571.91;;;13.09;93.80
70982;BME280;58640;51.320;9.456;2023-03-13T13:37:48;97560.72;;;12.83;95.45
70982;BME280;58640;51.320;9.456;2023-03-13T13:40:22;97563.78;;;12.86;95.46
70982;BME280;58640;51.320;9.456;2023-03-13T13:47:43;97545.50;;;12.88;95.57
70982;BME280;58640;51.320;9.456;2023-03-13T13:50:23;97546.19;;;12.95;94.61
70982;BME280;58640;51.320;9.456;2023-03-13T13:52:49;97551.59;;;12.84;95.66
70982;BME280;58640;51.320;9.456;2023-03-13T13:55:43;97541.75;;;12.78;96.83
70982;BME280;58640;51.320;9.456;2023-03-13T13:58:17;97530.25;;;12.71;98.24
70982;BME280;58640;51.320;9.456;2023-03-13T14:00:47;97529.66;;;12.80;97.63
70982;BME280;58640;51.320;9.456;2023-03-13T14:03:28;97531.75;;;12.78;98.41
70982;BME280;58640;51.320;9.456;2023-03-13T14:06:01;97531.09;;;12.71;98.81
70982;BME280;58640;51.320;9.456;2023-03-13T14:08:32;97519.91;;;12.91;97.51
70982;BME280;58640;51.320;9.456;2023-03-13T14:11:13;97525.78;;;12.88;97.31
70982;BME280;58640;51.320;9.456;2023-03-13T14:16:51;97497.41;;;12.85;96.84
70982;BME280;58640;51.320;9.456;2023-03-13T14:19:36;97499.84;;;12.87;96.62
70982;BME280;58640;51.320;9.456;2023-03-13T14:22:05;97500.94;;;12.86;96.65
70982;BME280;58640;51.320;9.456;2023-03-13T14:24:31;97511.97;;;12.73;97.52
70982;BME280;58640;51.320;9.456;2023-03-13T14:26:56;97505.97;;;12.71;98.31
70982;BME280;58640;51.320;9.456;2023-03-13T14:29:22;97509.16;;;12.68;99.54
70982;BME280;58640;51.320;9.456;2023-03-13T14:31:57;97505.97;;;12.82;98.36
70982;BME280;58640;51.320;9.456;2023-03-13T14:34:23;97499.03;;;12.75;99.73